Time;durP1;ratioP1;P1;durP2;ratioP2;P2;SDS_P1;SDS_P2;PMS_P1;PMS_P2;Temp;Humidity;BMP_temperature;BMP_pressure;BME280_temperature;BME280_humidity;BME280_pressure;Samples;Min_cycle;Max_cycle;Signal;HPM_P1;HPM_P2
2023/04/12 00:00:16;;;;;;;5.95;1.92;;;;;;;5.25;100.00;95372.47;1034660;28;20072;-72
2023/04/12 00:00:49;;;;;;;5.80;2.28;;;;;;;5.28;100.00;95375.38;1035013;28;20450;-72
2023/04/12 00:01:20;;;;;;;5.35;2.55;;;;;;;5.28;100.00;95380.59;1039058;28;20038;-72
2023/04/12 00:01:50;;;;;;;3.05;1.77;;;;;;;5.29;100.00;95376.16;1039540;28;20605;-72
2023/04/12 00:02:20;;;;;;;4.55;2.20;;;;;;;5.29;100.00;95384.75;1038821;28;20029;-72
2023/04/12 00:02:53;;;;;;;4.60;2.15;;;;;;;5.30;100.00;95380.34;1035060;28;20463;-72
2023/04/12 00:03:24;;;;;;;3.58;2.25;;;;;;;5.26;100.00;95369.63;1031089;28;20041;-72
2023/04/12 00:03:54;;;;;;;5.57;2.33;;;;;;;5.31;100.00;95374.91;1038841;28;20347;-72
2023/04/12 00:04:27;;;;;;;5.03;2.13;;;;;;;5.32;100.00;95373.88;1039060;28;20291;-72
2023/04/12 00:05:01;;;;;;;4.32;1.95;;;;;;;5.33;100.00;95380.69;1042848;28;20403;-72
2023/04/12 00:05:33;;;;;;;7.22;1.90;;;;;;;5.32;100.00;95378.28;1041964;28;20942;-72
2023/04/12 00:06:06;;;;;;;2.72;2.03;;;;;;;5.30;100.00;95373.34;1033264;28;20268;-72
2023/04/12 00:06:36;;;;;;;3.38;1.92;;;;;;;5.32;100.00;95371.28;1039804;28;20722;-72
2023/04/12 00:07:08;;;;;;;5.68;2.20;;;;;;;5.28;100.00;95361.59;1043019;28;20286;-71
2023/04/12 00:07:39;;;;;;;3.92;2.63;;;;;;;5.33;100.00;95367.66;1040125;28;20298;-72
2023/04/12 00:08:10;;;;;;;5.82;2.00;;;;;;;5.34;100.00;95374.44;1037663;28;20638;-71
2023/04/12 00:08:41;;;;;;;4.28;1.52;;;;;;;5.33;100.00;95372.88;1038176;28;20044;-72
2023/04/12 00:09:12;;;;;;;2.78;1.50;;;;;;;5.34;100.00;95371.84;1031275;28;20550;-72
2023/04/12 00:09:43;;;;;;;4.65;2.15;;;;;;;5.34;100.00;95371.84;1031322;28;20273;-71
2023/04/12 00:10:13;;;;;;;3.55;1.75;;;;;;;5.34;100.00;95374.44;1038538;28;20264;-72
2023/04/12 00:10:43;;;;;;;4.50;1.85;;;;;;;5.34;100.00;95374.44;1035159;28;20331;-72
2023/04/12 00:11:14;;;;;;;4.43;1.60;;;;;;;5.35;100.00;95370.81;1043044;28;20513;-72
2023/04/12 00:11:45;;;;;;;5.63;2.00;;;;;;;5.34;100.00;95371.84;1043077;28;20029;-72
2023/04/12 00:12:18;;;;;;;8.57;1.70;;;;;;;5.25;100.00;95362.84;1038631;28;20029;-72
2023/04/12 00:12:48;;;;;;;4.15;1.90;;;;;;;5.32;100.00;95367.88;1034682;28;20054;-72
2023/04/12 00:13:19;;;;;;;3.90;2.08;;;;;;;5.32;100.00;95365.28;1035142;28;20277;-72
2023/04/12 00:13:49;;;;;;;6.88;1.75;;;;;;;5.33;100.00;95365.06;1034823;28;20537;-72
2023/04/12 00:14:20;;;;;;;3.72;2.05;;;;;;;5.35;100.00;95363.00;1031502;28;20791;-72
2023/04/12 00:14:50;;;;;;;7.53;1.48;;;;;;;5.34;100.00;95365.84;1042446;28;20036;-71
2023/04/12 00:15:20;;;;;;;3.55;1.73;;;;;;;5.33;100.00;95361.66;1039095;28;20343;-72
2023/04/12 00:15:51;;;;;;;5.55;1.88;;;;;;;5.29;100.00;95358.75;1030933;28;20081;-72
2023/04/12 00:16:21;;;;;;;6.57;1.95;;;;;;;5.34;100.00;95360.66;1034734;28;20053;-72
2023/04/12 00:16:52;;;;;;;6.03;2.15;;;;;;;5.35;100.00;95357.78;1030824;28;20022;-72
2023/04/12 00:17:22;;;;;;;4.38;2.15;;;;;;;5.33;100.00;95365.06;1038851;28;20021;-72
2023/04/12 00:17:53;;;;;;;3.53;1.65;;;;;;;5.32;100.00;95363.47;1044223;28;20029;-72
2023/04/12 00:18:23;;;;;;;2.83;1.50;;;;;;;5.31;100.00;95361.91;1047096;28;20464;-72
2023/04/12 00:18:54;;;;;;;5.85;2.42;;;;;;;5.33;100.00;95362.47;1038486;28;20029;-72
2023/04/12 00:19:26;;;;;;;4.50;2.05;;;;;;;5.32;100.00;95358.28;1034947;28;20030;-71
2023/04/12 00:19:57;;;;;;;5.22;1.50;;;;;;;5.31;100.00;95351.50;1034651;28;20133;-72
2023/04/12 00:20:27;;;;;;;4.22;1.75;;;;;;;5.32;100.00;95353.06;1035632;28;20265;-72
2023/04/12 00:20:58;;;;;;;3.33;1.90;;;;;;;5.33;100.00;95354.66;1034880;28;20342;-72
2023/04/12 00:21:29;;;;;;;4.40;1.80;;;;;;;5.32;100.00;95350.47;1034777;28;20021;-72
2023/04/12 00:21:59;;;;;;;4.13;2.08;;;;;;;5.35;100.00;95363.00;1031267;28;20026;-72
2023/04/12 00:22:30;;;;;;;5.35;1.83;;;;;;;5.36;100.00;95361.19;1029107;28;20054;-72
2023/04/12 00:23:01;;;;;;;2.75;1.73;;;;;;;5.35;100.00;95362.22;1027729;28;20457;-72
2023/04/12 00:23:32;;;;;;;4.72;1.80;;;;;;;5.35;100.00;95357.78;1037576;28;20034;-72
2023/04/12 00:24:03;;;;;;;3.03;1.60;;;;;;;5.36;100.00;95351.56;1047122;28;20802;-72
2023/04/12 00:24:34;;;;;;;3.30;1.70;;;;;;;5.36;100.00;95359.34;1046247;28;20281;-72
2023/04/12 00:25:04;;;;;;;5.55;1.88;;;;;;;5.36;100.00;95359.34;1042546;28;20025;-72
2023/04/12 00:25:37;;;;;;;2.38;1.48;;;;;;;5.33;100.00;95354.66;1038670;28;20037;-72
2023/04/12 00:26:07;;;;;;;6.38;1.80;;;;;;;5.36;100.00;95353.38;1038685;28;20511;-71
2023/04/12 00:26:38;;;;;;;2.45;2.03;;;;;;;5.36;100.00;95346.34;1034616;28;20260;-72
2023/04/12 00:27:08;;;;;;;3.53;1.73;;;;;;;5.36;100.00;95356.75;1034911;28;20511;-72
2023/04/12 00:27:39;;;;;;;2.70;1.77;;;;;;;5.36;100.00;95345.56;1038850;28;20037;-72
2023/04/12 00:28:09;;;;;;;4.25;1.58;;;;;;;5.37;100.00;95355.75;1030587;28;20516;-72
2023/04/12 00:28:41;;;;;;;4.32;1.95;;;;;;;5.36;100.00;95356.75;1026596;28;20049;-72
2023/04/12 00:29:11;;;;;;;5.47;1.98;;;;;;;5.37;100.00;95355.75;1026684;28;20111;-72
2023/04/12 00:29:41;;;;;;;5.15;1.90;;;;;;;5.39;100.00;95358.09;1032764;28;20358;-72
2023/04/12 00:30:12;;;;;;;6.65;1.85;;;;;;;5.39;100.00;95358.09;1031068;28;20030;-71
2023/04/12 00:30:43;;;;;;;6.88;2.08;;;;;;;5.38;100.00;95359.13;1038788;28;20505;-72
2023/04/12 00:31:14;;;;;;;6.13;2.05;;;;;;;5.37;100.00;95357.56;1034342;28;20045;-72
2023/04/12 00:31:45;;;;;;;4.32;1.67;;;;;;;5.37;100.00;95354.97;1030965;28;20276;-72
2023/04/12 00:32:15;;;;;;;2.83;1.83;;;;;;;5.35;100.00;95350.00;1039029;28;20029;-72
2023/04/12 00:32:45;;;;;;;5.30;2.30;;;;;;;5.23;100.00;95332.91;1043175;28;20486;-72
2023/04/12 00:33:16;;;;;;;5.47;1.95;;;;;;;5.36;100.00;95343.75;1045873;28;20393;-72
2023/04/12 00:33:46;;;;;;;4.97;1.73;;;;;;;5.33;100.00;95346.84;1046988;28;20039;-73
2023/04/12 00:34:17;;;;;;;7.28;2.53;;;;;;;5.37;100.00;95345.34;1042827;28;20033;-72
2023/04/12 00:34:47;;;;;;;6.55;2.22;;;;;;;5.39;100.00;95345.09;1035851;28;20057;-72
2023/04/12 00:35:18;;;;;;;5.00;1.85;;;;;;;5.38;100.00;95340.94;1038616;28;20042;-72
2023/04/12 00:35:48;;;;;;;4.03;1.70;;;;;;;5.32;100.00;95327.06;1042864;28;20533;-72
2023/04/12 00:36:19;;;;;;;4.00;1.98;;;;;;;5.39;100.00;95345.09;1034492;28;20036;-72
2023/04/12 00:36:49;;;;;;;5.30;1.90;;;;;;;5.36;100.00;95333.34;1042901;28;20106;-72
2023/04/12 00:37:20;;;;;;;7.97;2.28;;;;;;;5.33;100.00;95335.63;1034382;28;20476;-72
2023/04/12 00:37:50;;;;;;;3.88;1.90;;;;;;;5.39;100.00;95337.28;1034852;28;20072;-72
2023/04/12 00:38:21;;;;;;;4.68;1.73;;;;;;;5.34;100.00;95330.22;1030610;28;20022;-72
2023/04/12 00:38:51;;;;;;;5.82;2.00;;;;;;;5.41;100.00;95335.25;1026661;28;20034;-72
2023/04/12 00:39:22;;;;;;;7.82;2.47;;;;;;;5.41;100.00;95338.63;1034569;28;20057;-72
2023/04/12 00:39:52;;;;;;;4.97;1.77;;;;;;;5.41;100.00;95333.44;1034756;28;20507;-72
2023/04/12 00:40:23;;;;;;;6.60;2.15;;;;;;;5.39;100.00;95338.06;1038826;28;20030;-72
2023/04/12 00:40:53;;;;;;;3.65;1.90;;;;;;;5.39;100.00;95338.06;1042886;28;20039;-72
2023/04/12 00:41:25;;;;;;;5.88;2.00;;;;;;;5.32;100.00;95332.25;1038574;28;20553;-72
2023/04/12 00:41:55;;;;;;;5.38;1.77;;;;;;;5.37;100.00;95340.16;1034928;28;20029;-72
2023/04/12 00:42:26;;;;;;;4.15;2.00;;;;;;;5.38;100.00;95333.91;1038708;28;20303;-72
2023/04/12 00:42:57;;;;;;;2.35;1.45;;;;;;;5.36;100.00;95333.34;1038807;28;20034;-72
2023/04/12 00:43:28;;;;;;;5.38;2.03;;;;;;;5.30;100.00;95331.72;1041868;28;20021;-72
2023/04/12 00:43:58;;;;;;;3.90;2.03;;;;;;;5.35;100.00;95336.97;1038860;28;20029;-73
2023/04/12 00:44:29;;;;;;;6.55;1.88;;;;;;;5.36;100.00;95332.56;1042231;28;20451;-72
2023/04/12 00:45:00;;;;;;;5.20;1.90;;;;;;;5.38;100.00;95339.09;1038370;28;20025;-72
2023/04/12 00:45:30;;;;;;;2.25;1.45;;;;;;;5.36;100.00;95330.75;1038951;28;20025;-72
2023/04/12 00:46:00;;;;;;;3.85;1.70;;;;;;;5.38;100.00;95335.72;1038468;28;20048;-72
2023/04/12 00:46:31;;;;;;;3.55;1.80;;;;;;;5.31;100.00;95325.47;1038719;28;20077;-72
2023/04/12 00:47:05;;;;;;;4.20;1.60;;;;;;;5.37;100.00;95334.94;1034471;28;20033;-72
2023/04/12 00:47:36;;;;;;;7.05;1.70;;;;;;;5.27;100.00;95323.63;1034568;28;20131;-72
2023/04/12 00:48:07;;;;;;;3.28;1.80;;;;;;;5.32;100.00;95332.25;1026523;28;20453;-72
2023/04/12 00:48:37;;;;;;;2.67;1.85;;;;;;;5.35;100.00;95329.19;1029974;28;20030;-72
2023/04/12 00:49:07;;;;;;;4.35;1.70;;;;;;;5.36;100.00;95332.56;1030897;28;20572;-72
2023/04/12 00:49:38;;;;;;;3.88;1.92;;;;;;;5.32;100.00;95334.84;1042815;28;20029;-71
2023/04/12 00:50:09;;;;;;;5.65;2.00;;;;;;;5.36;100.00;95335.94;1040191;28;20028;-72
2023/04/12 00:50:46;;;;;;;3.88;1.73;;;;;;;5.32;100.00;95321.06;1038311;28;20029;-71
2023/04/12 00:51:16;;;;;;;8.52;2.08;;;;;;;5.35;100.00;95331.78;1029570;28;20261;-72
2023/04/12 00:51:47;;;;;;;2.75;1.88;;;;;;;5.34;100.00;95338.03;1026310;28;20266;-72
2023/04/12 00:52:17;;;;;;;4.88;1.90;;;;;;;5.31;100.00;95324.69;1027302;28;20027;-72
2023/04/12 00:52:48;;;;;;;2.58;1.48;;;;;;;5.32;100.00;95327.06;1031429;28;20022;-73
2023/04/12 00:53:18;;;;;;;3.92;1.77;;;;;;;5.31;100.00;95325.47;1038572;28;20107;-72
2023/04/12 00:53:49;;;;;;;2.92;1.63;;;;;;;5.32;100.00;95321.84;1030486;28;20527;-72
2023/04/12 00:54:21;;;;;;;3.70;1.60;;;;;;;5.35;100.00;95331.78;1034370;28;20084;-72
2023/04/12 00:54:52;;;;;;;4.45;2.03;;;;;;;5.32;100.00;95329.66;1034255;28;20037;-72
2023/04/12 00:55:22;;;;;;;5.72;2.00;;;;;;;5.33;100.00;95336.44;1037721;28;20296;-72
2023/04/12 00:55:53;;;;;;;3.03;1.80;;;;;;;5.28;100.00;95323.34;1042481;28;20310;-72
2023/04/12 00:56:26;;;;;;;4.88;1.80;;;;;;;5.26;100.00;95325.41;1038286;28;20033;-72
2023/04/12 00:56:57;;;;;;;2.88;1.92;;;;;;;5.32;100.00;95326.28;1034462;28;20026;-73
2023/04/12 00:57:32;;;;;;;2.67;1.67;;;;;;;5.33;100.00;95328.66;1026430;28;20266;-72
2023/04/12 00:58:04;;;;;;;3.60;2.10;;;;;;;5.32;100.00;95332.25;1022584;29;21254;-72
2023/04/12 00:58:35;;;;;;;6.25;1.75;;;;;;;5.35;100.00;95331.00;1032427;28;20751;-72
2023/04/12 00:59:06;;;;;;;5.93;2.00;;;;;;;5.32;100.00;95337.47;1031939;28;20258;-72
2023/04/12 00:59:36;;;;;;;4.25;1.92;;;;;;;5.28;100.00;95325.97;1035509;28;20029;-72
2023/04/12 01:00:11;;;;;;;3.03;2.25;;;;;;;5.26;100.00;95319.41;1026207;28;20556;-73
2023/04/12 01:00:48;;;;;;;4.82;2.20;;;;;;;5.29;100.00;95321.53;1038529;28;20013;-73
2023/04/12 01:01:20;;;;;;;3.00;1.67;;;;;;;5.35;100.00;95333.59;1038695;28;20260;-73
2023/04/12 01:01:51;;;;;;;3.75;2.00;;;;;;;5.29;100.00;95327.53;1036474;28;20356;-72
2023/04/12 01:02:22;;;;;;;3.95;1.70;;;;;;;5.29;100.00;95324.13;1033922;28;20758;-71
2023/04/12 01:02:52;;;;;;;4.45;1.70;;;;;;;5.28;100.00;95320.75;1031805;28;20325;-72
2023/04/12 01:03:22;;;;;;;3.75;1.70;;;;;;;5.32;100.00;95336.69;1034144;28;20022;-72
2023/04/12 01:03:53;;;;;;;3.22;1.70;;;;;;;5.29;100.00;95322.31;1034523;28;20631;-72
2023/04/12 01:04:25;;;;;;;2.97;1.75;;;;;;;5.33;100.00;95328.66;1026429;28;20014;-71
2023/04/12 01:04:57;;;;;;;3.53;1.95;;;;;;;5.30;100.00;95326.53;1034070;28;20024;-73
2023/04/12 01:05:28;;;;;;;1.83;1.40;;;;;;;5.35;100.00;95331.78;1028659;28;20258;-72
2023/04/12 01:06:09;;;;;;;4.72;1.75;;;;;;;5.35;100.00;95333.59;1026439;28;20265;-72
2023/04/12 01:06:52;;;;;;;3.90;1.63;;;;;;;5.32;100.00;95323.66;1030259;28;20010;-72
2023/04/12 01:07:43;;;;;;;3.03;1.40;;;;;;;5.33;100.00;95328.66;1030457;28;20272;-72
2023/04/12 01:08:18;;;;;;;2.97;1.98;;;;;;;5.32;100.00;95329.66;1030981;28;20261;-72
2023/04/12 01:09:10;;;;;;;2.75;1.50;;;;;;;5.28;100.00;95325.19;1038332;28;20749;-72
2023/04/12 01:09:45;;;;;;;3.78;2.10;;;;;;;5.34;100.00;95329.44;1042600;28;20244;-72
2023/04/12 01:10:34;;;;;;;4.30;1.77;;;;;;;5.34;100.00;95330.22;1038591;28;20260;-72
2023/04/12 01:11:16;;;;;;;3.15;1.70;;;;;;;5.31;100.00;95330.69;1038511;28;20302;-72
2023/04/12 01:11:50;;;;;;;4.60;1.65;;;;;;;5.34;100.00;95330.22;1042644;28;20251;-72
2023/04/12 01:12:43;;;;;;;5.78;1.70;;;;;;;5.34;100.00;95337.22;1033858;28;20264;-72
2023/04/12 01:13:40;;;;;;;6.93;1.50;;;;;;;5.30;100.00;95331.72;1039304;28;20298;-72
2023/04/12 01:14:20;;;;;;;8.48;2.10;;;;;;;5.25;100.00;95339.44;1045132;28;20815;-72
2023/04/12 01:15:13;;;;;;;4.10;1.73;;;;;;;5.29;100.00;95345.72;1040142;28;20317;-71
2023/04/12 01:16:06;;;;;;;9.68;1.88;;;;;;;5.24;100.00;95345.69;1031035;28;20044;-72
2023/04/12 01:16:40;;;;;;;5.25;1.63;;;;;;;5.24;100.00;95347.50;1030803;28;20714;-72
2023/04/12 01:17:13;;;;;;;3.85;2.03;;;;;;;5.22;100.00;95342.50;1033397;28;20277;-72
2023/04/12 01:17:58;;;;;;;2.83;1.73;;;;;;;5.17;100.00;95350.25;1038339;28;20939;-72
2023/04/12 01:18:29;;;;;;;3.78;1.80;;;;;;;5.07;100.00;95335.28;1045328;28;20267;-72
2023/04/12 01:19:03;;;;;;;6.95;2.58;;;;;;;5.09;100.00;95348.03;1032563;28;20343;-72
2023/04/12 01:19:53;;;;;;;4.85;2.20;;;;;;;5.04;100.00;95351.38;1029028;28;20046;-71
2023/04/12 01:20:26;;;;;;;5.00;2.17;;;;;;;5.02;100.00;95348.19;1033422;28;20281;-71
2023/04/12 01:21:01;;;;;;;5.10;1.92;;;;;;;4.97;100.00;95340.34;1037229;28;20855;-72
2023/04/12 01:22:00;;;;;;;4.43;1.77;;;;;;;5.01;100.00;95351.84;1028712;28;20282;-71
2023/04/12 01:23:06;;;;;;;5.30;1.98;;;;;;;4.96;100.00;95347.34;1027340;28;20301;-71
2023/04/12 01:24:02;;;;;;;5.15;1.55;;;;;;;4.94;100.00;95346.00;1038586;28;20283;-72
2023/04/12 01:24:51;;;;;;;4.88;2.33;;;;;;;4.93;100.00;95347.03;1039564;28;20280;-72
2023/04/12 01:25:38;;;;;;;2.30;1.75;;;;;;;4.91;100.00;95349.84;1038398;28;20717;-71
2023/04/12 01:26:08;;;;;;;3.38;1.80;;;;;;;4.87;100.00;95351.34;1038484;28;20276;-72
2023/04/12 01:26:44;;;;;;;3.35;1.90;;;;;;;4.76;100.00;95339.19;1038505;28;20272;-72
2023/04/12 01:27:39;;;;;;;2.88;1.80;;;;;;;4.82;100.00;95347.88;1034640;28;20029;-72
2023/04/12 01:28:11;;;;;;;3.70;1.90;;;;;;;4.83;100.00;95350.25;1026332;28;20962;-72
2023/04/12 01:28:41;;;;;;;5.10;2.10;;;;;;;4.79;100.00;95343.16;1030408;28;20269;-72
2023/04/12 01:29:17;;;;;;;8.70;2.10;;;;;;;4.76;100.00;95347.00;1041778;28;21087;-72
2023/04/12 01:29:48;;;;;;;3.95;2.05;;;;;;;4.73;100.00;95350.09;1036933;28;20037;-72
2023/04/12 01:30:19;;;;;;;6.78;2.20;;;;;;;4.69;100.00;95338.56;1026450;28;20277;-72
2023/04/12 01:30:49;;;;;;;3.78;2.20;;;;;;;4.72;100.00;95348.50;1034473;28;20267;-71
2023/04/12 01:31:20;;;;;;;2.80;2.00;;;;;;;4.70;100.00;95346.16;1032031;28;20090;-72
2023/04/12 01:31:56;;;;;;;5.22;2.65;;;;;;;4.67;100.00;95345.84;1030325;28;20033;-72
2023/04/12 01:32:27;;;;;;;6.55;2.47;;;;;;;4.61;100.00;95347.56;1030459;28;20491;-71
2023/04/12 01:32:59;;;;;;;5.03;2.40;;;;;;;4.58;100.00;95353.22;1030988;28;20277;-72
2023/04/12 01:33:30;;;;;;;4.40;2.10;;;;;;;4.54;100.00;95341.72;1026177;28;20038;-71
2023/04/12 01:34:00;;;;;;;9.90;3.83;;;;;;;4.53;100.00;95344.53;1026308;28;20277;-72
2023/04/12 01:34:32;;;;;;;4.97;2.42;;;;;;;4.57;100.00;95356.06;1030046;28;20688;-71
2023/04/12 01:35:02;;;;;;;6.20;2.17;;;;;;;4.50;100.00;95348.41;1029991;28;20041;-72
2023/04/12 01:35:32;;;;;;;5.40;2.13;;;;;;;4.48;100.00;95350.44;1022290;29;20281;-72
2023/04/12 01:36:08;;;;;;;5.53;2.10;;;;;;;4.42;100.00;95344.34;1022454;29;20034;-72
2023/04/12 01:36:38;;;;;;;4.78;2.10;;;;;;;4.42;100.00;95352.16;1038414;28;20021;-72
2023/04/12 01:37:09;;;;;;;8.32;2.47;;;;;;;4.37;100.00;95343.50;1042755;28;20259;-73
2023/04/12 01:37:40;;;;;;;4.53;2.72;;;;;;;4.37;100.00;95344.28;1030368;28;20022;-71
2023/04/12 01:38:10;;;;;;;2.90;2.20;;;;;;;4.31;100.00;95342.59;1042442;28;20467;-72
2023/04/12 01:38:41;;;;;;;6.57;2.03;;;;;;;4.36;100.00;95350.50;1038557;28;20025;-72
2023/04/12 01:39:11;;;;;;;5.88;2.40;;;;;;;4.30;100.00;95346.22;1034443;28;20031;-72
2023/04/12 01:39:41;;;;;;;6.63;2.38;;;;;;;4.35;100.00;95346.31;1026313;28;20054;-72
2023/04/12 01:40:12;;;;;;;3.42;2.42;;;;;;;4.35;100.00;95348.91;1034358;28;20407;-72
2023/04/12 01:40:43;;;;;;;9.05;2.78;;;;;;;4.35;100.00;95353.31;1030374;28;20133;-72
2023/04/12 01:41:13;;;;;;;6.32;2.67;;;;;;;4.32;100.00;95343.41;1022439;29;20038;-72
2023/04/12 01:41:47;;;;;;;4.78;2.47;;;;;;;4.34;100.00;95347.34;1026342;28;20457;-72
2023/04/12 01:42:19;;;;;;;7.03;2.47;;;;;;;4.35;100.00;95354.09;1035708;28;20034;-72
2023/04/12 01:42:49;;;;;;;2.83;2.45;;;;;;;4.34;100.00;95347.34;1038594;28;20268;-73
2023/04/12 01:43:20;;;;;;;5.90;2.90;;;;;;;4.32;100.00;95349.38;1037258;28;20272;-72
2023/04/12 01:43:50;;;;;;;6.68;2.90;;;;;;;4.25;100.00;95343.53;1033829;28;20030;-72
2023/04/12 01:44:21;;;;;;;5.43;2.45;;;;;;;4.30;100.00;95355.84;1030443;28;20041;-72
2023/04/12 01:44:51;;;;;;;3.85;2.60;;;;;;;4.29;100.00;95355.03;1030304;28;20475;-72
2023/04/12 01:45:22;;;;;;;6.85;2.47;;;;;;;4.25;100.00;95346.13;1042648;28;20031;-72
2023/04/12 01:45:52;;;;;;;3.42;2.38;;;;;;;4.31;100.00;95352.22;1034411;28;20100;-72
2023/04/12 01:46:23;;;;;;;7.90;2.78;;;;;;;4.30;100.00;95345.44;1030316;28;20068;-72
2023/04/12 01:46:54;;;;;;;7.82;2.72;;;;;;;4.33;100.00;95356.16;1026149;28;20018;-72
2023/04/12 01:47:24;;;;;;;6.82;2.67;;;;;;;4.31;100.00;95353.00;1030503;28;20018;-72
2023/04/12 01:47:55;;;;;;;5.55;2.50;;;;;;;4.33;100.00;95353.56;1034480;28;20480;-72
2023/04/12 01:48:25;;;;;;;4.70;2.63;;;;;;;4.33;100.00;95347.59;1034221;28;20121;-72
2023/04/12 01:48:56;;;;;;;8.65;2.53;;;;;;;4.30;100.00;95346.22;1030289;28;20030;-72
2023/04/12 01:49:30;;;;;;;5.53;2.33;;;;;;;4.28;100.00;95358.66;1026547;28;20030;-72
2023/04/12 01:50:11;;;;;;;7.75;2.55;;;;;;;4.30;100.00;95355.84;1035525;28;20261;-72
2023/04/12 01:50:48;;;;;;;4.68;2.80;;;;;;;4.28;100.00;95353.47;1034278;28;20347;-72
2023/04/12 01:51:32;;;;;;;4.57;2.60;;;;;;;4.26;100.00;95347.72;1038594;28;20026;-72
2023/04/12 01:52:08;;;;;;;6.63;2.90;;;;;;;4.28;100.00;95357.88;1038155;28;20275;-72
2023/04/12 01:52:42;;;;;;;3.72;2.22;;;;;;;4.29;100.00;95349.84;1034226;28;20285;-72
2023/04/12 01:53:17;;;;;;;4.70;2.70;;;;;;;4.28;100.00;95345.66;1034266;28;20287;-71
2023/04/12 01:54:11;;;;;;;7.50;2.90;;;;;;;4.33;100.00;95352.78;1030211;28;20281;-72
2023/04/12 01:54:42;;;;;;;5.72;2.75;;;;;;;4.33;100.00;95352.78;1037965;28;20784;-71
2023/04/12 01:55:13;;;;;;;5.65;2.90;;;;;;;4.33;100.00;95356.16;1036264;28;20260;-71
2023/04/12 01:55:44;;;;;;;4.70;2.75;;;;;;;4.32;100.00;95351.19;1034255;28;20050;-71
2023/04/12 01:56:16;;;;;;;11.25;2.78;;;;;;;4.33;100.00;95356.16;1034357;28;20265;-71
2023/04/12 01:56:56;;;;;;;4.93;2.78;;;;;;;4.33;100.00;95356.16;1026568;28;20292;-71
2023/04/12 01:57:27;;;;;;;9.57;3.00;;;;;;;4.34;100.00;95355.13;1029583;28;20787;-72
2023/04/12 01:57:57;;;;;;;4.65;2.80;;;;;;;4.32;100.00;95349.38;1032018;28;20011;-72
2023/04/12 01:58:27;;;;;;;4.85;2.95;;;;;;;4.31;100.00;95347.03;1031612;28;20110;-72
2023/04/12 01:58:59;;;;;;;6.90;3.20;;;;;;;4.33;100.00;95356.16;1030139;28;20050;-72
2023/04/12 01:59:42;;;;;;;4.53;2.45;;;;;;;4.28;100.00;95340.47;1038355;28;20092;-72
2023/04/12 02:00:13;;;;;;;10.48;3.65;;;;;;;4.35;100.00;95350.72;1031518;28;20257;-72
2023/04/12 02:00:43;;;;;;;6.57;2.80;;;;;;;4.33;100.00;95348.38;1034224;28;21047;-71
2023/04/12 02:01:14;;;;;;;6.68;2.72;;;;;;;4.36;100.00;95349.69;1038502;28;20010;-72
2023/04/12 02:01:45;;;;;;;10.73;3.33;;;;;;;4.34;100.00;95342.16;1039127;28;20511;-72
2023/04/12 02:02:16;;;;;;;9.07;2.78;;;;;;;4.35;100.00;95345.53;1030503;28;20265;-72
2023/04/12 02:02:46;;;;;;;6.78;2.63;;;;;;;4.29;100.00;95343.84;1034255;28;20827;-71
2023/04/12 02:03:19;;;;;;;8.55;2.55;;;;;;;4.35;100.00;95355.91;1034462;28;20018;-72
2023/04/12 02:03:49;;;;;;;9.00;3.08;;;;;;;4.35;100.00;95346.31;1034113;28;20013;-71
2023/04/12 02:04:20;;;;;;;6.57;3.40;;;;;;;4.32;100.00;95344.19;1022554;29;20747;-72
2023/04/12 02:04:50;;;;;;;6.53;3.40;;;;;;;4.36;100.00;95345.31;1029444;28;20029;-71
2023/04/12 02:05:20;;;;;;;5.70;2.90;;;;;;;4.32;100.00;95331.19;1030096;28;20431;-71
2023/04/12 02:05:51;;;;;;;8.38;3.03;;;;;;;4.38;100.00;95348.44;1034578;28;20021;-71
2023/04/12 02:06:21;;;;;;;5.82;3.10;;;;;;;4.41;100.00;95355.78;1026261;28;20025;-72
2023/04/12 02:06:52;;;;;;;6.35;3.22;;;;;;;4.41;100.00;95344.59;1026279;28;20528;-71
2023/04/12 02:07:22;;;;;;;5.70;2.80;;;;;;;4.42;100.00;95344.34;1030229;28;20349;-72
2023/04/12 02:07:53;;;;;;;7.43;3.30;;;;;;;4.43;100.00;95343.34;1035900;28;20039;-72
2023/04/12 02:08:24;;;;;;;10.85;3.58;;;;;;;4.37;100.00;95346.88;1042586;28;20017;-71
2023/04/12 02:08:58;;;;;;;5.82;2.78;;;;;;;4.40;100.00;95345.63;1033997;28;20026;-71
2023/04/12 02:09:29;;;;;;;8.25;3.20;;;;;;;4.41;100.00;95339.41;1026161;28;20258;-71
2023/04/12 02:09:59;;;;;;;5.10;3.25;;;;;;;4.44;100.00;95346.75;1030292;28;20254;-72
2023/04/12 02:10:30;;;;;;;10.38;3.08;;;;;;;4.40;100.00;95333.44;1031993;28;20026;-72
2023/04/12 02:11:07;;;;;;;5.22;3.30;;;;;;;4.46;100.00;95347.28;1034404;28;20028;-72
2023/04/12 02:11:37;;;;;;;5.72;2.85;;;;;;;4.41;100.00;95342.78;1035121;28;20018;-72
2023/04/12 02:12:08;;;;;;;7.53;3.17;;;;;;;4.41;100.00;95342.78;1039591;28;20310;-72
2023/04/12 02:12:38;;;;;;;5.75;3.28;;;;;;;4.43;100.00;95345.94;1038612;28;20056;-72
2023/04/12 02:13:08;;;;;;;4.45;2.70;;;;;;;4.44;100.00;95338.94;1034188;28;20737;-72
2023/04/12 02:13:39;;;;;;;6.40;2.85;;;;;;;4.43;100.00;95340.75;1034200;28;20049;-71
2023/04/12 02:14:10;;;;;;;5.70;2.83;;;;;;;4.45;100.00;95343.91;1038353;28;20025;-72
2023/04/12 02:14:40;;;;;;;11.18;2.92;;;;;;;4.46;100.00;95342.91;1033553;28;20040;-72
2023/04/12 02:15:12;;;;;;;9.20;3.40;;;;;;;4.45;100.00;95343.09;1037803;28;20025;-72
2023/04/12 02:15:43;;;;;;;11.20;3.78;;;;;;;4.38;100.00;95339.88;1034056;28;20038;-71
2023/04/12 02:16:13;;;;;;;7.20;2.90;;;;;;;4.39;100.00;95333.66;1038423;28;20256;-73
2023/04/12 02:16:44;;;;;;;10.90;2.90;;;;;;;4.41;100.00;95340.19;1026699;28;20111;-72
2023/04/12 02:17:15;;;;;;;6.13;2.92;;;;;;;4.46;100.00;95345.50;1030191;28;20945;-72
2023/04/12 02:17:45;;;;;;;6.32;2.88;;;;;;;4.43;100.00;95337.38;1030296;28;20277;-71
2023/04/12 02:18:16;;;;;;;4.85;2.97;;;;;;;4.49;100.00;95344.22;1030675;28;20474;-72
2023/04/12 02:18:46;;;;;;;5.60;3.35;;;;;;;4.49;100.00;95339.03;1042578;28;20029;-70
2023/04/12 02:19:18;;;;;;;6.22;3.22;;;;;;;4.51;100.00;95341.41;1046843;28;20725;-72
2023/04/12 02:19:48;;;;;;;9.63;3.70;;;;;;;4.48;100.00;95343.44;1046475;28;20048;-71
2023/04/12 02:20:20;;;;;;;7.47;3.17;;;;;;;4.49;100.00;95342.44;1046331;28;20274;-72
2023/04/12 02:20:50;;;;;;;6.55;2.97;;;;;;;4.50;100.00;95345.81;1038387;28;20037;-72
2023/04/12 02:21:21;;;;;;;11.63;3.97;;;;;;;4.51;100.00;95344.78;1037529;28;20264;-71
2023/04/12 02:21:52;;;;;;;8.82;3.28;;;;;;;4.53;100.00;95341.94;1034934;28;20511;-71
2023/04/12 02:22:22;;;;;;;8.40;3.42;;;;;;;4.48;100.00;95330.44;1033718;28;20502;-70
2023/04/12 02:22:53;;;;;;;8.43;3.35;;;;;;;4.51;100.00;95336.19;1034933;28;20320;-72
2023/04/12 02:23:24;;;;;;;5.20;3.15;;;;;;;4.55;100.00;95339.91;1035692;28;20026;-71
2023/04/12 02:23:55;;;;;;;6.80;3.20;;;;;;;4.53;100.00;95341.94;1042985;28;20037;-72
2023/04/12 02:24:26;;;;;;;7.97;3.20;;;;;;;4.56;100.00;95344.06;1038759;28;20268;-72
2023/04/12 02:24:58;;;;;;;5.68;3.28;;;;;;;4.54;100.00;95346.13;1035109;28;20038;-72
2023/04/12 02:25:29;;;;;;;6.15;2.83;;;;;;;4.57;100.00;95335.28;1034211;28;20022;-71
2023/04/12 02:26:00;;;;;;;6.38;3.05;;;;;;;4.56;100.00;95344.06;1031209;28;20282;-72
2023/04/12 02:26:30;;;;;;;8.05;3.05;;;;;;;4.58;100.00;95347.22;1034871;28;20276;-72
2023/04/12 02:27:01;;;;;;;8.07;2.92;;;;;;;4.57;100.00;95333.47;1039128;28;20033;-71
2023/04/12 02:27:31;;;;;;;6.03;2.80;;;;;;;4.58;100.00;95342.03;1031206;28;20062;-72
2023/04/12 02:28:02;;;;;;;7.50;3.17;;;;;;;4.56;100.00;95338.88;1034832;28;20435;-72
2023/04/12 02:28:33;;;;;;;6.50;3.30;;;;;;;4.56;100.00;95338.88;1035111;28;20757;-72
2023/04/12 02:29:07;;;;;;;8.25;3.55;;;;;;;4.56;100.00;95333.69;1031082;28;20032;-72
2023/04/12 02:29:38;;;;;;;5.85;2.88;;;;;;;4.59;100.00;95333.22;1035613;28;20792;-72
2023/04/12 02:30:09;;;;;;;5.88;2.70;;;;;;;4.51;100.00;95331.00;1031612;28;20351;-72
2023/04/12 02:30:40;;;;;;;5.38;2.85;;;;;;;4.53;100.00;95334.13;1039024;28;20116;-72
2023/04/12 02:31:10;;;;;;;7.90;2.72;;;;;;;4.56;100.00;95344.06;1034893;28;20525;-72
2023/04/12 02:31:41;;;;;;;9.23;3.30;;;;;;;4.53;100.00;95336.75;1031099;28;20269;-72
2023/04/12 02:32:11;;;;;;;7.40;3.03;;;;;;;4.57;100.00;95330.06;1038925;28;20036;-71
2023/04/12 02:32:45;;;;;;;7.13;2.95;;;;;;;4.56;100.00;95331.88;1039390;28;20036;-72
2023/04/12 02:33:16;;;;;;;6.93;2.97;;;;;;;4.56;100.00;95331.06;1042617;28;20032;-71
2023/04/12 02:33:47;;;;;;;9.77;3.65;;;;;;;4.51;100.00;95318.03;1039506;28;20275;-71
2023/04/12 02:34:18;;;;;;;6.88;3.40;;;;;;;4.56;100.00;95333.69;1039260;28;20418;-71